createdAt,value
2023-04-26T00:01:35.500Z,68.51
2023-04-26T00:04:04.880Z,68.66
2023-04-26T00:06:34.919Z,68.23
2023-04-26T00:09:04.960Z,68.50
2023-04-26T00:11:35.926Z,67.85
2023-04-26T00:14:05.060Z,67.49
2023-04-26T00:16:35.187Z,67.48
2023-04-26T00:19:05.063Z,67.69
2023-04-26T00:21:34.059Z,67.57
2023-04-26T00:24:02.734Z,67.04
2023-04-26T00:26:31.444Z,67.83
2023-04-26T00:29:00.434Z,67.28
2023-04-26T00:31:29.202Z,66.39
2023-04-26T00:33:59.227Z,66.46
2023-04-26T00:36:28.266Z,65.75
2023-04-26T00:38:56.898Z,67.00
2023-04-26T00:41:25.580Z,65.81
2023-04-26T00:43:54.627Z,65.11
2023-04-26T00:46:23.887Z,65.29
2023-04-26T00:48:53.297Z,66.34
2023-04-26T00:51:23.843Z,65.87
2023-04-26T00:53:52.592Z,66.35
2023-04-26T00:56:22.732Z,66.32
2023-04-26T00:58:54.252Z,66.80
2023-04-26T01:01:23.177Z,67.15
2023-04-26T01:03:52.429Z,67.22
2023-04-26T01:06:21.781Z,67.78
2023-04-26T01:08:53.740Z,67.71
2023-04-26T01:11:24.334Z,66.83
2023-04-26T01:13:53.121Z,66.91
2023-04-26T01:16:21.944Z,66.24
2023-04-26T01:18:52.921Z,66.12
2023-04-26T01:21:22.821Z,66.37
2023-04-26T01:23:53.387Z,66.03
2023-04-26T01:26:22.158Z,66.57
2023-04-26T01:28:51.260Z,66.59
2023-04-26T01:31:20.085Z,66.61
2023-04-26T01:33:48.850Z,66.61
2023-04-26T01:36:17.753Z,66.24
2023-04-26T01:38:46.412Z,66.74
2023-04-26T01:41:17.006Z,65.70
2023-04-26T01:43:46.062Z,66.16
2023-04-26T01:46:14.791Z,66.58
2023-04-26T01:48:43.966Z,66.50
2023-04-26T01:51:13.361Z,66.25
2023-04-26T01:53:42.120Z,65.53
2023-04-26T01:56:11.382Z,65.51
2023-04-26T01:58:41.768Z,66.47
2023-04-26T02:01:11.598Z,66.73
2023-04-26T02:03:40.645Z,66.76
2023-04-26T02:06:09.577Z,66.72
2023-04-26T02:08:38.458Z,66.17
2023-04-26T02:11:08.398Z,65.95
2023-04-26T02:13:38.420Z,66.18
2023-04-26T02:16:08.984Z,65.82
2023-04-26T02:18:37.728Z,64.53
2023-04-26T02:21:09.668Z,63.64
2023-04-26T02:23:38.610Z,63.46
2023-04-26T02:26:07.335Z,63.29
2023-04-26T02:28:36.818Z,63.66
2023-04-26T02:31:05.870Z,64.13
2023-04-26T02:33:36.083Z,63.67
2023-04-26T02:36:06.494Z,65.46
2023-04-26T02:38:36.366Z,65.66
2023-04-26T02:41:05.971Z,65.78
2023-04-26T02:43:34.807Z,66.12
2023-04-26T02:46:03.678Z,67.33
2023-04-26T02:48:32.808Z,66.71
2023-04-26T02:51:02.886Z,66.22
2023-04-26T02:53:31.825Z,65.92
2023-04-26T02:56:01.676Z,65.82
2023-04-26T02:58:30.480Z,66.63
2023-04-26T03:01:01.264Z,66.86
2023-04-26T03:03:31.107Z,67.53
2023-04-26T03:06:00.316Z,67.58
2023-04-26T03:08:30.475Z,66.71
2023-04-26T03:10:59.332Z,66.93
2023-04-26T03:13:30.028Z,67.03
2023-04-26T03:15:59.407Z,67.38
2023-04-26T03:18:28.473Z,67.34
2023-04-26T03:20:57.473Z,68.46
2023-04-26T03:23:26.466Z,67.57
2023-04-26T03:25:56.940Z,67.90
2023-04-26T03:28:26.061Z,67.94
2023-04-26T03:30:55.118Z,66.94
2023-04-26T03:33:23.912Z,66.90
2023-04-26T03:35:52.807Z,66.50
2023-04-26T03:38:22.496Z,65.13
2023-04-26T03:40:51.463Z,65.09
2023-04-26T03:43:21.568Z,64.89
2023-04-26T03:45:51.042Z,66.38
2023-04-26T03:48:19.787Z,64.25
2023-04-26T03:50:48.714Z,63.69
2023-04-26T03:53:17.802Z,63.18
2023-04-26T03:55:46.591Z,62.72
2023-04-26T03:58:17.431Z,62.38
2023-04-26T04:00:47.807Z,62.06
2023-04-26T04:03:17.114Z,61.97
2023-04-26T04:05:46.057Z,61.99
2023-04-26T04:08:15.705Z,61.47
2023-04-26T04:10:45.195Z,62.35
2023-04-26T04:13:13.862Z,62.77
2023-04-26T04:15:43.317Z,63.28
2023-04-26T04:18:13.679Z,65.06
2023-04-26T04:20:42.622Z,64.58
2023-04-26T04:23:11.314Z,64.08
2023-04-26T04:25:40.504Z,64.76
2023-04-26T04:28:09.634Z,64.95
2023-04-26T04:30:38.442Z,65.56
2023-04-26T04:33:07.522Z,66.09
2023-04-26T04:35:37.975Z,65.51
2023-04-26T04:38:07.221Z,65.62
2023-04-26T04:40:36.538Z,66.03
2023-04-26T04:43:05.191Z,65.18
2023-04-26T04:45:35.509Z,66.05
2023-04-26T04:48:05.276Z,66.48
2023-04-26T04:50:34.539Z,66.36
2023-04-26T04:53:04.833Z,64.22
2023-04-26T04:55:33.755Z,64.37
2023-04-26T04:58:03.713Z,61.14
2023-04-26T05:00:34.105Z,58.46
2023-04-26T05:03:03.806Z,56.87
2023-04-26T05:05:33.051Z,57.15
2023-04-26T05:08:01.862Z,54.66
2023-04-26T05:10:32.968Z,55.80
2023-04-26T05:13:01.852Z,55.49
2023-04-26T05:15:30.943Z,55.74
2023-04-26T05:18:01.182Z,55.79
2023-04-26T05:20:31.296Z,55.61
2023-04-26T05:23:00.433Z,56.54
2023-04-26T05:25:29.291Z,55.73
2023-04-26T05:27:59.596Z,53.64
2023-04-26T05:30:31.375Z,55.61
2023-04-26T05:33:00.520Z,54.38
2023-04-26T05:35:31.509Z,55.44
2023-04-26T05:38:00.128Z,56.08
2023-04-26T05:40:28.930Z,56.59
2023-04-26T05:42:59.286Z,55.69
2023-04-26T05:45:28.470Z,55.75
2023-04-26T05:47:57.239Z,56.12
2023-04-26T05:50:27.122Z,56.56
2023-04-26T05:52:56.003Z,56.12
2023-04-26T05:55:24.750Z,54.72
2023-04-26T05:57:54.036Z,55.85
2023-04-26T06:00:25.022Z,55.78
2023-04-26T06:02:54.390Z,56.43
2023-04-26T06:05:23.541Z,56.04
2023-04-26T06:07:52.608Z,55.36
2023-04-26T06:10:22.118Z,54.50
2023-04-26T06:12:51.749Z,54.28
2023-04-26T06:15:20.649Z,54.08
2023-04-26T06:17:51.000Z,53.49
2023-04-26T06:20:19.726Z,53.57
2023-04-26T06:22:48.445Z,51.72
2023-04-26T06:25:18.031Z,51.73
2023-04-26T06:27:46.720Z,50.36
2023-04-26T06:30:16.090Z,49.60
2023-04-26T06:32:46.055Z,49.55
2023-04-26T06:35:17.549Z,48.87
2023-04-26T06:37:46.563Z,49.38
2023-04-26T06:40:16.677Z,49.29
2023-04-26T06:42:45.453Z,50.11
2023-04-26T06:45:15.168Z,49.83
2023-04-26T06:47:44.189Z,48.27
2023-04-26T06:50:13.715Z,49.01
2023-04-26T06:52:43.972Z,47.25
2023-04-26T06:55:12.626Z,48.42
2023-04-26T06:57:41.347Z,47.87
2023-04-26T07:00:11.809Z,47.97
2023-04-26T07:02:40.647Z,47.37
2023-04-26T07:05:09.863Z,47.48
2023-04-26T07:07:38.937Z,46.92
2023-04-26T07:10:10.624Z,45.89
2023-04-26T07:12:39.581Z,46.99
2023-04-26T07:15:09.608Z,46.81
2023-04-26T07:17:38.406Z,46.56
2023-04-26T07:20:08.824Z,45.81
2023-04-26T07:22:37.687Z,45.29
2023-04-26T07:25:07.526Z,45.92
2023-04-26T07:27:37.875Z,45.79
2023-04-26T07:30:07.839Z,45.18
2023-04-26T07:32:37.666Z,45.59
2023-04-26T07:35:10.535Z,45.52
2023-04-26T07:37:39.618Z,43.51
2023-04-26T07:40:10.641Z,44.45
2023-04-26T07:42:40.935Z,45.19
2023-04-26T07:45:11.250Z,44.18
2023-04-26T07:47:40.160Z,43.38
2023-04-26T07:50:12.231Z,43.65
2023-04-26T07:52:42.241Z,41.38
2023-04-26T07:55:11.312Z,40.30
2023-04-26T07:57:41.774Z,41.51
2023-04-26T08:00:12.261Z,40.79
2023-04-26T08:02:44.897Z,40.12
2023-04-26T08:05:14.698Z,40.41
2023-04-26T08:07:44.248Z,40.88
2023-04-26T08:10:13.483Z,39.79
2023-04-26T08:12:43.917Z,40.49
2023-04-26T08:15:13.660Z,39.10
2023-04-26T08:17:42.639Z,39.31
2023-04-26T08:20:12.284Z,37.42
2023-04-26T08:22:40.984Z,38.90
2023-04-26T08:25:10.790Z,37.65
2023-04-26T08:27:39.962Z,37.91
2023-04-26T08:30:11.014Z,39.09
2023-04-26T08:32:39.789Z,39.06
2023-04-26T08:35:09.623Z,36.64
2023-04-26T08:37:38.914Z,36.22
2023-04-26T08:40:14.769Z,36.19
2023-04-26T08:42:44.378Z,36.62
2023-04-26T08:45:16.333Z,36.63
2023-04-26T08:47:46.247Z,36.54
2023-04-26T08:50:16.437Z,35.78
2023-04-26T08:52:45.603Z,35.91
2023-04-26T08:55:16.424Z,34.89
2023-04-26T08:57:47.521Z,36.21
2023-04-26T09:00:18.761Z,35.37
2023-04-26T09:02:49.998Z,34.67
2023-04-26T09:05:23.635Z,36.47
2023-04-26T09:07:53.257Z,36.08
2023-04-26T09:10:23.301Z,36.46
2023-04-26T09:12:53.588Z,36.67
2023-04-26T09:15:26.435Z,35.84
2023-04-26T09:17:55.858Z,34.90
2023-04-26T09:20:27.619Z,34.28
2023-04-26T09:23:08.105Z,34.82
2023-04-26T09:25:37.342Z,34.61
2023-04-26T09:28:20.541Z,34.09
2023-04-26T09:30:50.953Z,33.90
2023-04-26T09:33:20.061Z,33.57
2023-04-26T09:35:48.787Z,34.02
2023-04-26T09:38:19.358Z,35.82
2023-04-26T09:40:52.869Z,36.56
2023-04-26T09:43:22.713Z,36.58
2023-04-26T09:45:54.581Z,34.88
2023-04-26T09:48:25.828Z,35.01
2023-04-26T09:50:55.991Z,34.48
2023-04-26T09:53:29.550Z,34.40
2023-04-26T09:55:59.611Z,34.53
2023-04-26T09:58:28.332Z,33.35
2023-04-26T10:00:58.512Z,33.20
2023-04-26T10:03:28.118Z,33.42
2023-04-26T10:05:57.854Z,33.78
2023-04-26T10:08:26.870Z,33.83
2023-04-26T10:10:56.779Z,34.01
2023-04-26T10:13:25.963Z,33.57
2023-04-26T10:15:55.172Z,32.95
2023-04-26T10:18:25.363Z,33.15
2023-04-26T10:20:57.286Z,33.34
2023-04-26T10:23:26.559Z,33.99
2023-04-26T10:25:55.866Z,34.58
2023-04-26T10:29:02.676Z,33.36
2023-04-26T10:32:10.604Z,33.20
2023-04-26T10:34:41.665Z,34.50
2023-04-26T10:37:14.336Z,34.58
2023-04-26T10:39:43.888Z,34.17
2023-04-26T10:42:26.962Z,34.46
2023-04-26T10:44:56.591Z,32.66
2023-04-26T10:47:30.591Z,32.98
2023-04-26T10:50:08.770Z,32.32
2023-04-26T10:52:38.057Z,32.73
2023-04-26T10:55:07.927Z,33.82
2023-04-26T10:57:51.500Z,34.01
2023-04-26T11:00:32.325Z,33.16
2023-04-26T11:03:07.089Z,33.67
2023-04-26T11:05:56.016Z,33.08
2023-04-26T11:08:30.145Z,32.85
2023-04-26T11:11:10.182Z,32.55
2023-04-26T11:13:40.108Z,31.25
2023-04-26T11:16:09.664Z,31.53
2023-04-26T11:18:39.880Z,31.84
2023-04-26T11:21:11.226Z,31.12
2023-04-26T11:23:40.276Z,31.44
2023-04-26T11:26:10.410Z,31.58
2023-04-26T11:28:39.790Z,31.66
2023-04-26T11:31:08.615Z,32.21
2023-04-26T11:33:37.827Z,32.33
2023-04-26T11:36:07.235Z,32.03
2023-04-26T11:38:39.010Z,32.14
2023-04-26T11:41:10.479Z,31.91
2023-04-26T11:43:40.123Z,31.70
2023-04-26T11:46:10.485Z,30.77
2023-04-26T11:48:40.177Z,31.17
2023-04-26T11:51:10.544Z,31.21
2023-04-26T11:53:41.883Z,31.89
2023-04-26T11:56:17.814Z,31.79
2023-04-26T11:58:47.743Z,32.88
2023-04-26T12:01:24.235Z,32.41
2023-04-26T12:03:54.277Z,32.72
2023-04-26T12:06:30.805Z,32.54
2023-04-26T12:09:03.024Z,31.97
2023-04-26T12:11:31.771Z,31.31
2023-04-26T12:14:01.548Z,31.28
2023-04-26T12:16:30.501Z,30.12
2023-04-26T12:18:59.265Z,29.46
2023-04-26T12:21:30.724Z,30.37
2023-04-26T12:24:04.243Z,30.25
2023-04-26T12:26:45.795Z,30.31
2023-04-26T12:29:14.559Z,28.69
2023-04-26T12:31:43.892Z,28.71
2023-04-26T12:34:12.561Z,30.06
2023-04-26T12:36:43.304Z,31.27
2023-04-26T12:39:15.725Z,31.23
2023-04-26T12:41:45.099Z,32.19
2023-04-26T12:44:14.383Z,31.80
2023-04-26T12:46:43.284Z,31.25
2023-04-26T12:49:12.030Z,31.54
2023-04-26T12:51:41.086Z,31.99
2023-04-26T12:54:09.868Z,31.65
2023-04-26T12:56:43.853Z,31.44
2023-04-26T12:59:13.175Z,31.25
2023-04-26T13:01:42.040Z,31.90
2023-04-26T13:04:11.438Z,31.38
2023-04-26T13:06:40.575Z,30.67
2023-04-26T13:09:09.495Z,29.85
2023-04-26T13:11:42.141Z,29.83
2023-04-26T13:14:11.260Z,28.42
2023-04-26T13:16:43.757Z,28.73
2023-04-26T13:19:12.745Z,28.20
2023-04-26T13:21:42.104Z,28.06
2023-04-26T13:24:10.832Z,29.06
2023-04-26T13:26:41.221Z,29.43
2023-04-26T13:29:10.171Z,29.78
2023-04-26T13:31:40.034Z,29.88
2023-04-26T13:34:09.765Z,30.12
2023-04-26T13:36:38.450Z,30.56
2023-04-26T13:39:08.111Z,29.59
2023-04-26T13:41:37.267Z,30.53
2023-04-26T13:44:07.320Z,30.09
2023-04-26T13:46:36.354Z,29.81
2023-04-26T13:49:05.574Z,30.46
2023-04-26T13:51:34.866Z,30.60
2023-04-26T13:54:04.029Z,29.06
2023-04-26T13:56:32.979Z,28.19
2023-04-26T13:59:05.674Z,27.46
2023-04-26T14:01:36.983Z,26.75
2023-04-26T14:04:06.741Z,26.69
2023-04-26T14:06:36.385Z,26.96
2023-04-26T14:09:07.027Z,28.37
2023-04-26T14:11:36.047Z,29.65
2023-04-26T14:14:05.207Z,30.92
2023-04-26T14:16:35.466Z,31.04
2023-04-26T14:19:04.591Z,31.25
2023-04-26T14:21:33.261Z,31.16
2023-04-26T14:24:02.051Z,29.97
2023-04-26T14:26:30.960Z,30.09
2023-04-26T14:28:59.654Z,28.65
2023-04-26T14:31:30.436Z,29.26
2023-04-26T14:34:01.031Z,29.20
2023-04-26T14:36:29.799Z,29.21
2023-04-26T14:38:58.566Z,30.53
2023-04-26T14:41:27.529Z,31.10
2023-04-26T14:43:58.607Z,31.60
2023-04-26T14:46:27.297Z,31.54
2023-04-26T14:48:56.417Z,32.20
2023-04-26T14:51:27.366Z,32.57
2023-04-26T14:53:56.504Z,32.72
2023-04-26T14:56:25.276Z,31.58
2023-04-26T14:58:53.973Z,30.23
2023-04-26T15:01:23.081Z,29.47
2023-04-26T15:03:51.984Z,28.12
2023-04-26T15:06:20.809Z,28.25
2023-04-26T15:08:51.389Z,27.14
2023-04-26T15:11:20.039Z,27.16
2023-04-26T15:13:48.937Z,25.66
2023-04-26T15:16:17.929Z,26.23
2023-04-26T15:18:46.743Z,26.99
2023-04-26T15:21:17.735Z,27.26
2023-04-26T15:23:46.527Z,27.05
2023-04-26T15:26:16.965Z,28.03
2023-04-26T15:28:47.351Z,28.99
2023-04-26T15:31:16.395Z,29.24
2023-04-26T15:33:45.128Z,28.77
2023-04-26T15:36:13.752Z,28.69
2023-04-26T15:38:45.296Z,28.78
2023-04-26T15:41:14.194Z,29.48
2023-04-26T15:43:44.503Z,29.67
2023-04-26T15:46:14.555Z,30.42
2023-04-26T15:48:44.142Z,31.20
2023-04-26T15:51:12.843Z,30.99
2023-04-26T15:53:43.998Z,30.71
2023-04-26T15:56:16.461Z,30.41
2023-04-26T15:58:46.971Z,30.21
2023-04-26T16:01:16.155Z,29.48
2023-04-26T16:03:47.641Z,30.28
2023-04-26T16:06:16.790Z,30.20
2023-04-26T16:08:45.977Z,29.81
2023-04-26T16:11:14.634Z,29.71
2023-04-26T16:13:44.575Z,28.92
2023-04-26T16:16:15.090Z,29.00
2023-04-26T16:18:44.295Z,28.99
2023-04-26T16:21:13.630Z,29.61
2023-04-26T16:23:42.709Z,30.23
2023-04-26T16:26:11.990Z,30.62
2023-04-26T16:28:40.912Z,30.42
2023-04-26T16:31:09.692Z,30.51
2023-04-26T16:33:39.826Z,30.53
2023-04-26T16:36:10.196Z,31.08
2023-04-26T16:38:39.177Z,31.73
2023-04-26T16:41:08.102Z,31.47
2023-04-26T16:43:36.964Z,31.71
2023-04-26T16:46:06.654Z,31.94
2023-04-26T16:48:37.023Z,31.89
2023-04-26T16:51:08.188Z,31.65
2023-04-26T16:53:37.718Z,31.70
2023-04-26T16:56:07.442Z,31.92
2023-04-26T16:58:36.110Z,31.78
2023-04-26T17:01:05.095Z,30.66
2023-04-26T17:03:36.084Z,31.22
2023-04-26T17:06:07.822Z,30.77
2023-04-26T17:08:36.947Z,31.32
2023-04-26T17:11:06.059Z,31.16
2023-04-26T17:13:35.177Z,30.98
2023-04-26T17:16:05.764Z,31.08
2023-04-26T17:18:34.843Z,31.13
2023-04-26T17:21:03.887Z,31.20
2023-04-26T17:23:35.054Z,31.34
2023-04-26T17:26:04.892Z,31.50
2023-04-26T17:28:35.424Z,32.36
2023-04-26T17:31:06.139Z,32.20
2023-04-26T17:33:35.368Z,33.04
2023-04-26T17:36:04.774Z,32.24
2023-04-26T17:38:36.163Z,32.48
2023-04-26T17:41:05.980Z,32.48
2023-04-26T17:43:37.902Z,32.61
2023-04-26T17:46:07.449Z,32.07
2023-04-26T17:48:36.712Z,32.64
2023-04-26T17:51:07.133Z,32.43
2023-04-26T17:53:38.686Z,31.96
2023-04-26T17:56:10.732Z,32.21
2023-04-26T17:58:39.916Z,31.80
2023-04-26T18:01:09.459Z,31.68
2023-04-26T18:03:39.566Z,31.59
2023-04-26T18:06:08.905Z,31.85
2023-04-26T18:08:39.356Z,32.33
2023-04-26T18:11:08.185Z,31.78
2023-04-26T18:13:37.259Z,31.73
2023-04-26T18:16:06.676Z,32.52
2023-04-26T18:18:36.223Z,31.92
2023-04-26T18:21:07.253Z,32.10
2023-04-26T18:23:36.421Z,32.79
2023-04-26T18:26:06.281Z,32.65
2023-04-26T18:28:38.165Z,33.44
2023-04-26T18:31:08.233Z,33.06
2023-04-26T18:33:38.061Z,32.88
2023-04-26T18:36:09.022Z,31.99
2023-04-26T18:38:38.032Z,32.13
2023-04-26T18:41:15.229Z,31.84
2023-04-26T18:43:47.161Z,31.61
2023-04-26T18:46:18.350Z,32.23
2023-04-26T18:48:47.954Z,31.74
2023-04-26T18:51:20.972Z,32.00
2023-04-26T18:53:50.355Z,31.85
2023-04-26T18:56:21.636Z,32.16
2023-04-26T18:58:53.188Z,32.25
2023-04-26T19:01:24.369Z,32.34
2023-04-26T19:03:53.726Z,32.39
2023-04-26T19:06:24.355Z,32.44
2023-04-26T19:08:53.803Z,32.07
2023-04-26T19:11:24.309Z,32.35
2023-04-26T19:13:55.028Z,33.04
2023-04-26T19:16:24.688Z,32.60
2023-04-26T19:18:55.713Z,33.42
2023-04-26T19:21:25.444Z,32.74
2023-04-26T19:23:56.642Z,32.79
2023-04-26T19:26:27.748Z,32.72
2023-04-26T19:28:57.627Z,33.44
2023-04-26T19:31:27.653Z,32.89
2023-04-26T19:33:59.974Z,33.02
2023-04-26T19:36:32.103Z,33.38
2023-04-26T19:39:08.213Z,33.88
2023-04-26T19:41:39.374Z,33.91
2023-04-26T19:44:09.245Z,33.96
2023-04-26T19:46:38.558Z,34.31
2023-04-26T19:49:09.006Z,34.67
2023-04-26T19:51:38.938Z,34.39
2023-04-26T19:54:09.289Z,35.01
2023-04-26T19:56:41.760Z,34.47
2023-04-26T19:59:17.456Z,35.01
2023-04-26T20:01:46.859Z,35.06
2023-04-26T20:04:17.406Z,35.68
2023-04-26T20:06:48.852Z,35.23
2023-04-26T20:09:20.327Z,35.95
2023-04-26T20:11:52.519Z,36.40
2023-04-26T20:14:22.172Z,36.16
2023-04-26T20:16:52.268Z,36.09
2023-04-26T20:19:22.219Z,36.71
2023-04-26T20:21:52.277Z,36.01
2023-04-26T20:24:23.346Z,36.62
2023-04-26T20:26:54.830Z,36.38
2023-04-26T20:29:25.355Z,36.43
2023-04-26T20:31:54.626Z,36.25
2023-04-26T20:34:26.631Z,37.66
2023-04-26T20:36:56.738Z,36.08
2023-04-26T20:39:28.440Z,37.16
2023-04-26T20:41:59.409Z,39.03
2023-04-26T20:44:28.699Z,39.90
2023-04-26T20:46:58.433Z,40.52
2023-04-26T20:49:28.534Z,40.78
2023-04-26T20:51:58.297Z,40.77
2023-04-26T20:54:27.109Z,40.26
2023-04-26T20:56:55.900Z,41.03
2023-04-26T20:59:26.734Z,41.43
2023-04-26T21:01:55.830Z,41.32
2023-04-26T21:04:24.971Z,41.55
2023-04-26T21:06:54.432Z,41.03
2023-04-26T21:09:23.153Z,41.55
2023-04-26T21:11:52.090Z,41.51
2023-04-26T21:14:20.783Z,41.79
2023-04-26T21:16:50.795Z,41.69
2023-04-26T21:19:19.723Z,42.10
2023-04-26T21:21:48.695Z,42.58
2023-04-26T21:24:17.590Z,42.51
2023-04-26T21:26:46.538Z,42.42
2023-04-26T21:29:15.278Z,42.73
2023-04-26T21:31:44.200Z,43.06
2023-04-26T21:34:14.818Z,42.97
2023-04-26T21:36:43.462Z,42.79
2023-04-26T21:39:12.425Z,42.71
2023-04-26T21:41:41.964Z,42.71
2023-04-26T21:44:11.238Z,42.64
2023-04-26T21:46:40.152Z,42.98
2023-04-26T21:49:10.344Z,43.28
2023-04-26T21:51:40.798Z,43.07
2023-04-26T21:54:09.826Z,42.75
2023-04-26T21:56:38.517Z,43.27
2023-04-26T21:59:08.414Z,43.54
2023-04-26T22:01:37.428Z,43.59
2023-04-26T22:04:06.648Z,43.47
2023-04-26T22:06:35.602Z,44.01
2023-04-26T22:09:09.477Z,44.06
2023-04-26T22:11:38.892Z,44.05
2023-04-26T22:14:07.610Z,44.33
2023-04-26T22:16:36.399Z,44.43
2023-04-26T22:19:05.515Z,44.65
2023-04-26T22:21:34.254Z,44.21
2023-04-26T22:24:02.947Z,44.62
2023-04-26T22:26:33.292Z,44.46
2023-04-26T22:29:02.040Z,45.25
2023-04-26T22:31:30.808Z,45.68
2023-04-26T22:33:59.963Z,45.97
2023-04-26T22:36:28.694Z,45.90
2023-04-26T22:38:59.018Z,46.00
2023-04-26T22:41:28.020Z,45.92
2023-04-26T22:43:58.081Z,45.67
2023-04-26T22:46:27.000Z,46.21
2023-04-26T22:48:56.065Z,46.77
2023-04-26T22:51:27.093Z,46.49
2023-04-26T22:53:55.968Z,45.77
2023-04-26T22:56:24.633Z,45.96
2023-04-26T22:58:53.433Z,46.02
2023-04-26T23:01:23.807Z,46.15
2023-04-26T23:03:52.641Z,46.12
2023-04-26T23:06:21.498Z,46.15
2023-04-26T23:08:50.536Z,46.26
2023-04-26T23:11:19.727Z,46.53
2023-04-26T23:13:49.204Z,46.52
2023-04-26T23:16:18.197Z,46.64
2023-04-26T23:18:48.374Z,46.64
2023-04-26T23:21:17.061Z,46.96
2023-04-26T23:23:46.295Z,46.78
2023-04-26T23:26:15.053Z,46.78
2023-04-26T23:28:43.821Z,47.18
2023-04-26T23:31:12.894Z,47.03
2023-04-26T23:33:41.927Z,46.68
2023-04-26T23:36:12.120Z,47.43
2023-04-26T23:38:41.338Z,47.17
2023-04-26T23:41:10.090Z,47.27
2023-04-26T23:43:38.812Z,47.25
2023-04-26T23:46:07.844Z,47.49
2023-04-26T23:48:36.821Z,47.45
2023-04-26T23:51:06.179Z,47.23
2023-04-26T23:53:36.570Z,47.84
2023-04-26T23:56:06.389Z,47.52
2023-04-26T23:58:35.504Z,47.45
